Time;durP1;ratioP1;P1;durP2;ratioP2;P2;SDS_P1;SDS_P2;PMS_P1;PMS_P2;Temp;Humidity;BMP_temperature;BMP_pressure;BME280_temperature;BME280_humidity;BME280_pressure;Samples;Min_cycle;Max_cycle;Signal;HPM_P1;HPM_P2
2022/08/19 00:00:45;;;;;;;3.50;2.38;;;17.80;99.90;;;17.00;100.00;101421.31;4204518;28;20032;-76
2022/08/19 00:02:46;;;;;;;3.13;2.00;;;17.80;99.90;;;17.09;100.00;101430.91;4203716;28;20376;-76
2022/08/19 00:04:52;;;;;;;3.42;2.15;;;17.80;99.90;;;17.28;100.00;101443.72;4204298;28;20039;-76
2022/08/19 00:06:53;;;;;;;3.05;2.15;;;17.90;99.90;;;17.25;100.00;101430.75;4204240;28;20079;-76
2022/08/19 00:08:55;;;;;;;3.30;1.58;;;18.00;99.90;;;17.35;100.00;101443.81;4186427;28;20043;-76
2022/08/19 00:10:56;;;;;;;3.95;2.00;;;18.00;99.90;;;17.45;100.00;101453.19;4186646;28;20033;-76
2022/08/19 00:12:57;;;;;;;3.10;2.45;;;18.10;99.90;;;17.59;100.00;101457.72;4203597;28;20037;-76
2022/08/19 00:14:58;;;;;;;2.25;1.80;;;18.20;99.90;;;17.71;100.00;101470.63;4204064;28;20021;-76
2022/08/19 00:17:00;;;;;;;3.70;1.65;;;18.20;99.90;;;17.60;100.00;101439.88;4203574;28;20029;-76
2022/08/19 00:19:02;;;;;;;3.03;2.00;;;18.30;99.90;;;17.68;100.00;101429.94;4205289;28;20071;-76
2022/08/19 00:21:08;;;;;;;3.10;1.60;;;18.40;99.90;;;17.71;100.00;101430.59;4202969;28;20121;-76
2022/08/19 00:23:09;;;;;;;1.95;1.48;;;18.40;99.90;;;17.82;100.00;101446.97;4186355;28;20107;-76
2022/08/19 00:25:11;;;;;;;2.70;1.65;;;18.50;99.90;;;17.80;100.00;101432.16;4209587;28;20206;-76
2022/08/19 00:27:12;;;;;;;3.03;2.15;;;18.50;99.90;;;17.86;100.00;101442.91;4204202;28;20031;-76
2022/08/19 00:29:17;;;;;;;3.85;2.00;;;18.50;99.90;;;17.81;100.00;101428.47;4203924;28;20040;-76
2022/08/19 00:31:18;;;;;;;3.53;1.80;;;18.50;99.90;;;17.87;100.00;101438.38;4186172;28;20116;-76
2022/08/19 00:33:20;;;;;;;4.22;1.90;;;18.50;99.90;;;17.93;100.00;101438.47;4202557;28;20566;-76
2022/08/19 00:35:21;;;;;;;2.38;1.70;;;18.60;99.90;;;18.04;100.00;101446.00;4186224;28;20017;-76
2022/08/19 00:37:25;;;;;;;4.13;1.92;;;18.60;99.90;;;18.00;100.00;101438.56;4203782;28;20110;-75
2022/08/19 00:39:26;;;;;;;2.60;1.55;;;18.60;99.90;;;18.05;100.00;101442.31;4203772;28;20024;-76
2022/08/19 00:41:28;;;;;;;5.18;2.42;;;18.60;99.90;;;17.93;100.00;101425.13;4203613;28;20034;-76
2022/08/19 00:43:28;;;;;;;3.28;1.92;;;18.60;99.90;;;17.94;100.00;101418.78;4169768;28;20104;-76
2022/08/19 00:45:35;;;;;;;2.92;1.80;;;18.70;99.90;;;17.96;100.00;101418.59;4203635;28;20032;-76
2022/08/19 00:47:36;;;;;;;3.78;1.73;;;18.70;99.90;;;17.94;100.00;101412.63;4186371;28;20029;-76
2022/08/19 00:49:51;;;;;;;5.40;2.08;;;18.70;99.90;;;18.00;100.00;101415.38;4202362;28;20117;-76
2022/08/19 00:52:04;;;;;;;2.60;1.80;;;18.70;99.90;;;18.03;100.00;101411.50;4186678;28;20508;-76
2022/08/19 00:54:05;;;;;;;3.75;2.35;;;18.70;99.90;;;18.06;100.00;101421.78;4187037;28;20487;-76
2022/08/19 00:56:06;;;;;;;3.38;1.83;;;18.70;99.90;;;18.10;100.00;101436.41;4203391;28;20369;-76
2022/08/19 00:58:14;;;;;;;2.72;1.80;;;18.70;99.90;;;17.98;100.00;101420.03;4185866;28;20021;-76
2022/08/19 01:00:18;;;;;;;3.40;1.83;;;18.70;99.90;;;18.11;100.00;101432.72;4186080;28;20120;-76
2022/08/19 01:02:19;;;;;;;4.60;2.35;;;18.70;99.90;;;17.98;100.00;101414.72;4202929;28;20453;-76
2022/08/19 01:04:20;;;;;;;2.97;2.15;;;18.70;99.90;;;18.08;100.00;101431.25;4185640;28;20133;-76
2022/08/19 01:06:21;;;;;;;2.88;2.22;;;18.70;99.90;;;18.04;100.00;101407.81;4185524;28;20028;-76
2022/08/19 01:08:23;;;;;;;3.42;2.40;;;18.70;99.90;;;18.06;100.00;101411.13;4203301;28;20039;-76
2022/08/19 01:10:29;;;;;;;3.75;2.20;;;18.70;99.90;;;18.03;100.00;101398.97;4172503;28;20033;-76
2022/08/19 01:12:30;;;;;;;3.53;2.30;;;18.70;99.90;;;18.15;100.00;101410.00;4185865;28;20159;-76
2022/08/19 01:14:31;;;;;;;5.55;2.20;;;18.70;99.90;;;18.16;100.00;101406.28;4185521;28;20044;-76
2022/08/19 01:16:34;;;;;;;2.67;2.05;;;18.80;99.90;;;18.04;100.00;101394.47;4185136;28;20017;-76
2022/08/19 01:18:42;;;;;;;3.00;2.20;;;18.80;99.90;;;18.06;100.00;101398.59;4168822;28;20026;-76
2022/08/19 01:20:44;;;;;;;2.78;2.30;;;18.80;99.90;;;18.06;100.00;101387.91;4185806;28;20021;-76
2022/08/19 01:22:56;;;;;;;4.15;2.53;;;18.80;99.90;;;18.22;100.00;101406.34;4203089;28;20031;-76
2022/08/19 01:24:57;;;;;;;3.03;2.25;;;18.80;99.90;;;18.08;100.00;101382.38;4191205;28;20487;-76
2022/08/19 01:26:58;;;;;;;4.78;2.33;;;18.80;99.90;;;18.02;100.00;101372.44;4203883;28;20036;-76
2022/08/19 01:29:00;;;;;;;3.97;2.05;;;18.80;99.90;;;18.14;100.00;101392.28;4203082;28;20033;-76
2022/08/19 01:31:02;;;;;;;5.20;2.42;;;18.80;99.90;;;18.13;100.00;101390.63;4202958;28;20032;-76
2022/08/19 01:33:05;;;;;;;2.70;2.00;;;18.80;99.90;;;18.20;100.00;101396.88;4184862;28;20025;-76
2022/08/19 01:35:07;;;;;;;4.63;1.80;;;18.80;99.90;;;18.13;100.00;101380.78;4185410;28;20475;-76
2022/08/19 01:37:11;;;;;;;2.33;1.90;;;18.80;99.90;;;18.18;100.00;101391.75;4185242;28;20029;-76
2022/08/19 01:39:18;;;;;;;3.20;1.80;;;18.80;99.90;;;18.13;100.00;101375.44;4168672;28;20029;-76
2022/08/19 01:41:20;;;;;;;3.17;2.30;;;18.90;99.90;;;18.16;100.00;101388.41;4185265;28;20024;-76
2022/08/19 01:43:20;;;;;;;2.20;1.80;;;18.90;99.90;;;18.18;100.00;101398.94;4185415;28;20079;-76
2022/08/19 01:45:25;;;;;;;4.72;1.90;;;18.90;99.90;;;18.26;100.00;101409.47;4202724;28;20490;-76
2022/08/19 01:47:26;;;;;;;3.50;2.17;;;18.80;99.90;;;18.19;100.00;101401.38;4202382;28;20032;-76
2022/08/19 01:49:27;;;;;;;3.92;1.98;;;18.90;99.90;;;18.19;100.00;101397.88;4202508;28;20039;-76
2022/08/19 01:51:28;;;;;;;2.40;1.88;;;18.80;99.90;;;18.23;100.00;101407.19;4203016;28;20032;-76
2022/08/19 01:53:29;;;;;;;4.43;1.95;;;18.90;99.90;;;18.14;100.00;101385.13;4184786;28;20029;-76
2022/08/19 01:55:31;;;;;;;4.13;1.70;;;18.90;99.90;;;18.24;100.00;101400.84;4184983;28;20455;-76
2022/08/19 02:45:35;;;;;;;;;;;;;;;;;;;;;
2022/08/19 02:55:53;;;;;;;;;;;;;;;;;;;;;
2022/08/19 03:02:58;;;;;;;;;;;;;;;;;;;;;
2022/08/19 04:18:07;;;;;;;7.03;4.93;;;18.80;99.90;;;18.14;100.00;101446.53;4084972;29;20059;-78
2022/08/19 04:20:08;;;;;;;6.45;4.68;;;18.70;99.90;;;18.01;100.00;101417.00;4107083;28;20129;-79
2022/08/19 04:22:11;;;;;;;7.95;4.93;;;18.70;99.90;;;18.08;100.00;101435.78;4192745;28;20124;-79
2022/08/19 04:24:13;;;;;;;10.13;5.60;;;18.80;99.90;;;18.04;100.00;101415.81;4178802;28;20017;-79
2022/08/19 04:26:16;;;;;;;8.27;5.20;;;18.70;99.90;;;18.15;100.00;101431.34;4168251;28;20021;-79
2022/08/19 04:28:17;;;;;;;8.32;4.88;;;18.70;99.90;;;18.01;100.00;101413.53;4170620;28;20147;-79
2022/08/19 04:30:19;;;;;;;9.25;5.32;;;18.70;99.90;;;18.07;100.00;101420.78;4170377;28;20048;-79
2022/08/19 04:32:20;;;;;;;9.15;5.20;;;18.70;99.90;;;18.01;100.00;101424.22;4170382;28;20013;-79
2022/08/19 04:34:24;;;;;;;10.10;5.35;;;18.70;99.90;;;18.01;100.00;101418.88;4193842;28;20025;-79
2022/08/19 04:36:31;;;;;;;10.32;5.03;;;18.70;99.90;;;18.04;100.00;101429.97;4168725;28;20404;-78
2022/08/19 04:38:32;;;;;;;7.85;4.43;;;18.70;99.90;;;18.08;100.00;101446.47;4167853;28;20103;-79
2022/08/19 04:42:58;;;;;;;8.00;5.60;;;18.70;99.90;;;18.08;100.00;101439.28;4169836;28;20028;-79
2022/08/19 04:44:59;;;;;;;10.25;4.53;;;18.70;99.90;;;18.05;100.00;101445.00;4169197;28;20057;-79
2022/08/19 04:47:01;;;;;;;8.57;4.10;;;18.70;99.90;;;17.99;100.00;101427.06;4170533;28;20393;-79
2022/08/19 04:49:04;;;;;;;9.88;5.55;;;18.70;99.90;;;18.02;100.00;101425.84;4170597;28;20025;-79
2022/08/19 04:51:11;;;;;;;7.25;4.90;;;18.70;99.90;;;18.02;100.00;101441.88;4169378;28;20033;-78
2022/08/19 04:53:11;;;;;;;6.93;4.13;;;18.80;99.90;;;18.03;100.00;101424.84;4170470;28;20049;-78
2022/08/19 04:55:13;;;;;;;9.57;4.60;;;18.80;99.90;;;18.12;100.00;101445.91;4170645;28;20072;-78
2022/08/19 04:57:15;;;;;;;7.30;4.50;;;18.80;99.90;;;18.11;100.00;101451.41;4153025;28;20436;-78
2022/08/19 04:59:19;;;;;;;9.75;4.60;;;18.80;99.90;;;18.04;100.00;101443.31;4169280;28;20052;-78
2022/08/19 05:01:25;;;;;;;;;;;18.70;99.90;;;17.99;100.00;101444.91;4169340;28;20068;-78
2022/08/19 05:03:27;;;;;;;9.32;5.60;;;18.80;99.90;;;17.98;100.00;101435.25;4170329;28;20007;-78
2022/08/19 05:05:28;;;;;;;9.00;4.80;;;18.70;99.90;;;18.07;100.00;101450.16;4185478;28;20033;-78
2022/08/19 05:07:29;;;;;;;10.82;5.15;;;18.70;99.90;;;18.03;100.00;101443.53;4167862;28;20159;-78
2022/08/19 05:09:31;;;;;;;9.68;5.00;;;18.80;99.90;;;18.11;100.00;101448.75;4175104;28;20025;-78
2022/08/19 05:11:38;;;;;;;10.88;5.72;;;18.80;99.90;;;18.05;100.00;101438.81;4169109;28;20437;-78
2022/08/19 05:13:40;;;;;;;10.63;5.82;;;18.70;99.90;;;18.01;100.00;101438.34;4168991;28;20028;-78
2022/08/19 05:15:42;;;;;;;10.85;5.82;;;18.70;99.90;;;18.01;100.00;101440.22;4170499;28;20434;-78
2022/08/19 05:22:31;;;;;;;11.95;5.35;;;18.70;99.90;;;18.04;100.00;101447.88;4168707;28;20033;-78
2022/08/19 05:22:32;;;;;;;10.25;5.43;;;18.70;99.90;;;17.99;100.00;101444.91;4170233;28;20072;-78
2022/08/19 05:24:36;;;;;;;11.02;5.43;;;18.70;99.90;;;18.04;100.00;101446.00;4171646;28;20049;-78
2022/08/19 05:26:40;;;;;;;13.07;5.97;;;18.70;99.90;;;18.04;100.00;101451.34;4172123;28;20500;-78
2022/08/19 05:28:41;;;;;;;13.70;6.53;;;18.70;99.90;;;18.08;100.00;101447.28;4168854;28;20156;-78
2022/08/19 05:30:44;;;;;;;9.65;5.80;;;18.70;99.90;;;18.12;100.00;101456.59;4169704;28;20060;-78
2022/08/19 05:32:45;;;;;;;12.77;6.00;;;18.80;99.90;;;18.12;100.00;101445.06;4169610;28;20025;-78
2022/08/19 05:34:46;;;;;;;11.70;6.20;;;18.80;99.90;;;18.15;100.00;101444.69;4168456;28;20663;-78
2022/08/19 05:36:49;;;;;;;9.32;4.80;;;18.80;99.90;;;18.14;100.00;101440.38;4169935;28;20053;-78
2022/08/19 05:38:52;;;;;;;11.65;5.15;;;18.80;99.90;;;18.12;100.00;101439.72;4152248;28;20057;-78
2022/08/19 05:40:53;;;;;;;7.63;4.60;;;18.80;99.90;;;18.30;100.00;101461.50;4152616;28;20085;-78
2022/08/19 05:42:54;;;;;;;10.48;4.53;;;18.90;99.90;;;18.17;100.00;101437.31;4169691;28;20041;-78
2022/08/19 05:44:56;;;;;;;8.23;4.60;;;18.90;99.90;;;18.18;100.00;101441.66;4170015;28;20029;-78
2022/08/19 05:47:02;;;;;;;9.52;4.53;;;18.90;99.90;;;18.36;100.00;101459.94;4169269;28;20121;-78
2022/08/19 05:49:05;;;;;;;11.38;4.90;;;18.90;99.90;;;18.19;100.00;101432.59;4168035;28;20025;-76
2022/08/19 05:51:06;;;;;;;8.60;4.93;;;19.00;99.90;;;18.35;100.00;101445.72;4169522;28;20032;-76
2022/08/19 05:53:08;;;;;;;8.43;4.63;;;19.00;99.90;;;18.34;100.00;101435.25;4152301;28;20037;-76
2022/08/19 05:55:10;;;;;;;10.70;4.25;;;19.10;99.90;;;18.51;100.00;101453.56;4169571;28;20079;-76
2022/08/19 05:57:11;;;;;;;7.20;3.92;;;19.10;99.90;;;18.45;100.00;101442.75;4169463;28;20024;-77
2022/08/19 05:59:12;;;;;;;8.38;5.10;;;19.10;99.90;;;18.49;100.00;101455.56;4169464;28;20026;-77
2022/08/19 06:01:17;;;;;;;8.32;4.30;;;19.20;99.90;;;18.55;100.00;101465.50;4184514;28;20047;-77
2022/08/19 06:03:18;;;;;;;7.45;4.57;;;19.20;99.90;;;18.46;100.00;101450.56;4169640;28;20040;-76
2022/08/19 06:05:19;;;;;;;11.57;4.50;;;19.20;99.90;;;18.62;100.00;101478.94;4151880;28;20022;-76
2022/08/19 06:07:21;;;;;;;9.45;4.50;;;19.20;99.90;;;18.55;100.00;101460.16;4169372;28;20030;-76
2022/08/19 06:09:22;;;;;;;11.25;5.35;;;19.20;99.90;;;18.61;100.00;101478.09;4169502;28;20022;-77
2022/08/19 06:11:34;;;;;;;10.65;4.95;;;19.20;99.90;;;18.56;100.00;101455.63;4168359;28;20018;-76
2022/08/19 06:13:35;;;;;;;6.10;4.57;;;19.30;99.90;;;18.56;100.00;101456.47;4169095;28;20396;-77
2022/08/19 06:15:36;;;;;;;9.02;4.55;;;19.30;99.90;;;18.70;100.00;101468.94;4169165;28;20037;-77
2022/08/19 06:17:38;;;;;;;6.85;4.50;;;19.30;99.90;;;18.65;100.00;101454.50;4169245;28;20029;-76
2022/08/19 06:19:40;;;;;;;8.57;4.93;;;19.30;99.90;;;18.61;100.00;101448.69;4182552;28;20076;-76
2022/08/19 06:21:46;;;;;;;5.40;3.95;;;19.30;99.90;;;18.66;100.00;101457.00;4185679;28;20018;-76
2022/08/19 06:23:48;;;;;;;7.82;4.40;;;19.40;99.90;;;18.71;100.00;101454.56;4184325;28;20028;-77
2022/08/19 06:25:49;;;;;;;9.25;4.68;;;19.40;99.90;;;18.85;100.00;101470.69;4189761;28;20067;-76
2022/08/19 06:27:50;;;;;;;11.63;4.95;;;19.40;99.90;;;18.87;100.00;101458.81;4184423;28;20033;-77
2022/08/19 06:29:51;;;;;;;9.43;4.75;;;19.50;99.90;;;18.97;100.00;101472.66;4184344;28;20047;-76
2022/08/19 06:31:56;;;;;;;9.05;4.53;;;19.50;99.90;;;19.02;100.00;101462.25;4185242;28;20028;-77
2022/08/19 06:33:57;;;;;;;8.45;4.50;;;19.60;99.90;;;18.99;100.00;101453.78;4184277;28;20017;-76
2022/08/19 06:35:57;;;;;;;9.02;4.72;;;19.60;99.90;;;19.01;100.00;101451.72;4184756;28;20064;-77
2022/08/19 06:37:59;;;;;;;15.25;5.65;;;19.70;99.90;;;18.99;100.00;101445.75;4166229;28;20036;-77
2022/08/19 06:40:00;;;;;;;11.45;5.07;;;19.70;99.90;;;19.17;100.00;101475.53;4085248;28;20922;-77
2022/08/19 06:42:05;;;;;;;10.27;4.88;;;19.70;99.90;;;19.08;100.00;101455.28;4125239;28;20031;-77
2022/08/19 06:44:08;;;;;;;10.70;5.65;;;19.70;99.90;;;19.15;100.00;101473.03;4142392;28;20096;-77
2022/08/19 06:46:15;;;;;;;12.60;5.45;;;19.70;99.90;;;19.01;100.00;101438.34;4142107;28;20026;-77
2022/08/19 06:48:16;;;;;;;9.10;4.93;;;19.70;99.90;;;19.01;100.00;101449.03;4121984;28;20047;-76
2022/08/19 06:50:18;;;;;;;11.70;4.88;;;19.70;99.90;;;18.96;100.00;101440.78;4117991;28;20131;-76
2022/08/19 06:52:19;;;;;;;11.35;5.20;;;19.70;99.90;;;19.02;100.00;101461.41;4120424;28;20046;-76
2022/08/19 06:54:20;;;;;;;5.88;4.20;;;19.70;99.90;;;18.91;100.00;101448.53;4102752;28;20109;-76
2022/08/19 06:56:31;;;;;;;11.05;5.03;;;19.70;99.90;;;18.98;100.00;101460.13;4086049;29;20071;-76
2022/08/19 06:58:32;;;;;;;12.23;5.00;;;19.70;99.90;;;18.90;100.00;101454.94;4117696;28;20039;-76
2022/08/19 07:00:33;;;;;;;10.27;5.20;;;19.70;99.90;;;18.92;100.00;101468.91;4101942;28;20098;-76
2022/08/19 07:02:37;;;;;;;7.88;5.30;;;19.60;99.90;;;18.83;100.00;101459.38;4116967;28;20513;-76
2022/08/19 07:04:38;;;;;;;11.35;5.28;;;19.60;99.90;;;18.81;100.00;101448.91;4103129;28;20073;-76
2022/08/19 07:06:39;;;;;;;12.40;5.30;;;19.60;99.90;;;18.93;100.00;101465.25;4162354;28;20047;-77
2022/08/19 07:08:42;;;;;;;10.82;5.43;;;19.60;99.90;;;19.07;100.00;101480.38;4183878;28;20063;-76
2022/08/19 07:10:45;;;;;;;11.82;5.10;;;19.70;99.90;;;18.93;100.00;101462.56;4185054;28;20035;-76
2022/08/19 07:12:47;;;;;;;11.40;5.40;;;19.70;99.90;;;18.93;100.00;101463.41;4184000;28;20036;-76
2022/08/19 07:14:49;;;;;;;13.15;5.68;;;19.70;99.90;;;19.08;100.00;101482.88;4184993;28;20484;-76
2022/08/19 07:16:54;;;;;;;11.73;5.03;;;19.70;99.90;;;19.01;100.00;101473.13;4183596;28;20029;-76
2022/08/19 07:18:56;;;;;;;8.95;5.13;;;19.80;99.90;;;19.05;100.00;101466.38;4183548;28;20029;-76
2022/08/19 07:21:14;;;;;;;12.27;5.60;;;19.80;99.90;;;19.12;100.00;101457.38;4185037;28;20488;-75
2022/08/19 07:23:15;;;;;;;12.73;5.70;;;19.90;99.90;;;19.21;100.00;101466.06;4183646;28;20024;-76
2022/08/19 07:25:18;;;;;;;12.05;5.38;;;20.00;99.90;;;19.21;100.00;101460.72;4190370;28;20028;-75
2022/08/19 07:27:19;;;;;;;11.20;5.43;;;20.00;99.90;;;19.31;100.00;101479.94;4185005;28;20422;-75
2022/08/19 07:29:25;;;;;;;11.82;5.53;;;20.00;99.90;;;19.37;100.00;101492.53;4184906;28;20399;-76
2022/08/19 07:31:28;;;;;;;13.07;5.70;;;20.00;99.90;;;19.35;100.00;101494.59;4183919;28;20032;-76
2022/08/19 07:33:32;;;;;;;8.90;5.27;;;20.00;99.90;;;19.30;100.00;101491.66;4183535;28;20060;-76
2022/08/19 07:35:33;;;;;;;;;;;20.00;99.90;;;19.29;100.00;101493.50;4184308;28;20063;-76
2022/08/19 07:37:35;;;;;;;8.50;4.93;;;20.00;99.90;;;19.30;100.00;101494.31;4184044;28;19909;-76
2022/08/19 07:39:38;;;;;;;11.60;5.30;;;20.10;99.90;;;19.37;100.00;101497.88;4184893;28;20024;-75
2022/08/19 07:41:39;;;;;;;10.85;5.63;;;20.10;99.90;;;19.39;100.00;101486.97;4185034;28;20492;-75
2022/08/19 07:43:43;;;;;;;7.35;5.20;;;20.10;99.90;;;19.50;100.00;101499.88;4184886;28;20018;-75
2022/08/19 07:45:47;;;;;;;13.30;5.13;;;20.10;99.90;;;19.41;100.00;101488.50;4167665;28;20030;-75
2022/08/19 07:47:47;;;;;;;;;;;20.20;99.90;;;19.41;100.00;101488.50;4183836;28;20026;-75
2022/08/19 07:49:48;;;;;;;9.35;4.82;;;20.20;99.90;;;19.52;100.00;101484.44;4183850;28;19913;-75
2022/08/19 07:51:54;;;;;;;10.73;4.70;;;20.30;99.90;;;19.68;100.00;101501.00;4184801;28;20033;-75
2022/08/19 07:53:56;;;;;;;11.27;4.93;;;20.40;99.90;;;19.65;100.00;101484.53;4183574;28;20074;-76
2022/08/19 07:56:03;;;;;;;8.32;4.05;;;20.40;99.90;;;19.74;100.00;101497.53;4214346;28;20028;-76
2022/08/19 07:58:07;;;;;;;9.00;4.57;;;20.40;99.90;;;19.66;100.00;101475.44;4183690;28;20055;-75
2022/08/19 08:00:09;;;;;;;7.45;3.33;;;20.40;99.90;;;19.66;100.00;101476.28;4184692;28;20025;-75
2022/08/19 08:02:10;;;;;;;7.32;3.70;;;20.50;99.90;;;19.75;100.00;101483.13;4184502;28;20029;-76
2022/08/19 08:11:12;;;;;;;6.07;2.92;;;20.60;99.90;;;20.02;100.00;101486.75;4184515;28;20111;-76
2022/08/19 08:13:13;;;;;;;7.90;3.40;;;20.80;99.90;;;20.43;100.00;101517.03;4187597;28;20029;-75
2022/08/19 08:15:16;;;;;;;6.70;3.10;;;20.90;99.90;;;20.37;100.00;101490.19;4187388;28;20029;-76
2022/08/19 08:17:21;;;;;;;5.68;2.50;;;21.10;99.90;;;20.56;100.00;101515.41;4173962;28;20032;-77
2022/08/19 08:19:25;;;;;;;5.95;3.08;;;21.10;99.90;;;20.52;100.00;101509.63;4185594;28;20064;-77
2022/08/19 08:21:26;;;;;;;6.15;3.25;;;21.20;99.90;;;20.43;100.00;101513.50;4169825;28;20065;-78
2022/08/19 08:23:28;;;;;;;4.57;2.65;;;21.20;99.90;;;20.33;100.00;101505.06;4187387;28;20037;-77
2022/08/19 08:25:30;;;;;;;6.72;2.95;;;21.10;99.90;;;20.23;100.00;101505.38;4192683;28;20031;-77
2022/08/19 08:27:34;;;;;;;7.55;2.90;;;21.10;99.90;;;20.38;100.00;101513.31;4186282;28;20135;-77
2022/08/19 08:29:35;;;;;;;;;;;21.10;99.90;;;20.60;100.00;101495.22;4170891;28;20079;-78
2022/08/19 08:31:36;;;;;;;5.70;2.70;;;21.30;99.90;;;20.96;100.00;101488.47;4186980;28;19913;-78
2022/08/19 08:33:37;;;;;;;3.10;2.15;;;21.60;99.90;;;21.26;100.00;101501.50;4186197;28;20029;-78
2022/08/19 08:35:45;;;;;;;6.97;2.83;;;21.80;99.90;;;21.30;100.00;101508.09;4186237;28;20029;-77
2022/08/19 08:37:49;;;;;;;5.97;2.65;;;21.90;99.90;;;21.45;100.00;101508.69;4186234;28;20078;-78
2022/08/19 08:39:50;;;;;;;4.22;2.47;;;22.00;99.90;;;21.61;100.00;101486.78;4186023;28;20040;-77
2022/08/19 08:42:13;;;;;;;6.47;3.00;;;22.10;99.90;;;21.89;100.00;101498.09;4187316;28;20029;-78
2022/08/19 08:44:23;;;;;;;4.72;1.85;;;22.30;99.90;;;22.15;100.00;101515.16;4170637;28;20518;-78
2022/08/19 08:46:38;;;;;;;9.50;2.58;;;22.50;99.90;;;22.16;100.00;101501.50;4185744;28;20112;-78
2022/08/19 08:49:05;;;;;;;3.75;1.92;;;22.70;99.90;;;22.20;100.00;101494.66;4186146;28;20059;-77
2022/08/19 08:51:15;;;;;;;5.43;2.47;;;22.80;99.90;;;22.32;100.00;101502.88;4186166;28;20054;-77
2022/08/19 08:53:19;;;;;;;4.35;2.13;;;23.00;99.90;;;22.42;100.00;101503.25;4169718;28;20026;-77
2022/08/19 08:55:26;;;;;;;4.75;2.10;;;23.10;99.90;;;22.59;100.00;101531.28;4186176;28;20029;-77
2022/08/19 08:57:50;;;;;;;4.03;1.65;;;23.10;99.90;;;22.77;100.00;101531.41;4185563;28;20040;-77
2022/08/19 08:59:54;;;;;;;4.43;1.83;;;23.30;99.90;;;22.80;100.00;101533.66;4186573;28;20088;-78
2022/08/19 09:01:55;;;;;;;8.35;2.40;;;23.40;99.90;;;22.73;100.00;101535.56;4186511;28;20040;-78
2022/08/19 09:03:56;;;;;;;6.90;1.98;;;23.40;99.90;;;22.34;100.00;101516.94;4186761;28;20029;-78
2022/08/19 09:06:20;;;;;;;5.13;2.13;;;23.20;99.90;;;22.37;100.00;101543.41;4187008;28;20100;-77
2022/08/19 09:08:55;;;;;;;5.28;2.10;;;23.10;99.90;;;22.56;100.00;101529.84;4185867;28;20076;-76
2022/08/19 09:10:57;;;;;;;3.78;2.00;;;23.20;99.90;;;22.75;100.00;101503.91;4186891;28;20075;-77
2022/08/19 09:13:19;;;;;;;4.93;2.03;;;23.40;99.90;;;23.42;100.00;101526.56;4186871;28;20029;-77
2022/08/19 09:15:34;;;;;;;4.93;1.90;;;23.80;99.90;;;23.19;100.00;101507.50;4189105;28;20025;-78
2022/08/19 09:17:38;;;;;;;4.25;2.00;;;23.90;99.90;;;23.10;100.00;101509.63;4172136;28;20024;-77
2022/08/19 09:20:15;;;;;;;6.22;1.92;;;24.00;99.90;;;22.97;100.00;101529.41;4109958;28;20218;-77
2022/08/19 09:22:16;;;;;;;4.38;1.90;;;23.70;99.90;;;22.95;100.00;101515.34;4094226;28;20538;-78
2022/08/19 09:24:17;;;;;;;7.13;2.22;;;23.70;99.90;;;22.75;100.00;101521.91;4137949;28;20090;-78
2022/08/19 09:26:22;;;;;;;7.00;2.28;;;23.60;99.90;;;22.43;100.00;101502.22;4110994;28;20462;-78
2022/08/19 09:28:23;;;;;;;7.30;2.70;;;23.30;99.90;;;22.26;100.00;101509.09;4124062;28;20572;-78
2022/08/19 09:30:27;;;;;;;7.22;2.28;;;23.10;99.90;;;22.08;100.00;101506.28;4083232;28;20037;-77
2022/08/19 10:42:49;;;;;;;5.63;1.98;;;24.20;99.90;;;23.27;100.00;101529.56;4187619;27;20498;-76
2022/08/19 10:44:50;;;;;;;7.10;2.13;;;24.10;99.90;;;23.71;98.02;101533.97;4174510;28;20050;-77
2022/08/19 10:46:51;;;;;;;5.53;1.55;;;24.40;99.90;;;24.18;96.24;101527.84;4179556;28;20053;-77
2022/08/19 10:48:54;;;;;;;5.35;2.03;;;24.80;99.90;;;24.23;95.34;101519.91;4172939;28;20094;-77
2022/08/19 10:53:34;;;;;;;8.70;1.80;;;24.80;99.90;;;23.77;94.82;101548.41;4130746;28;20082;-77
2022/08/19 10:57:55;;;;;;;5.57;1.65;;;24.50;99.90;;;23.45;96.39;101526.13;4163258;28;20040;-78
2022/08/19 10:59:56;;;;;;;4.53;1.55;;;24.40;99.90;;;23.59;97.17;101522.28;4163502;28;20125;-77
2022/08/19 11:02:03;;;;;;;5.93;1.83;;;24.40;99.90;;;23.88;94.76;101526.09;4162446;28;20040;-77
2022/08/19 11:04:08;;;;;;;10.90;2.88;;;24.60;99.90;;;23.75;95.05;101516.28;4173852;28;20037;-77
2022/08/19 11:06:09;;;;;;;5.50;2.03;;;24.60;99.90;;;23.46;95.65;101509.75;4179177;28;20559;-76
2022/08/19 11:08:11;;;;;;;6.30;1.98;;;24.50;99.90;;;23.50;97.26;101513.66;4182232;28;20025;-76
2022/08/19 11:10:15;;;;;;;8.73;1.95;;;24.30;99.90;;;23.69;96.15;101539.56;4202518;28;20091;-76
2022/08/19 11:12:16;;;;;;;5.20;1.50;;;24.30;99.90;;;23.50;96.53;101513.66;4211447;28;20025;-77
2022/08/19 11:14:20;;;;;;;5.57;2.45;;;24.40;99.90;;;23.23;94.15;101512.22;4213861;28;20040;-77
2022/08/19 11:16:25;;;;;;;6.38;1.50;;;24.30;99.90;;;23.20;95.31;101511.84;4215043;28;20103;-77
2022/08/19 11:18:26;;;;;;;5.43;1.75;;;24.10;99.90;;;23.23;95.18;101512.22;4214819;28;20468;-77
2022/08/19 11:20:27;;;;;;;5.25;1.58;;;24.20;99.90;;;23.30;96.33;101522.91;4215259;28;20069;-77
2022/08/19 11:22:27;;;;;;;7.00;1.58;;;24.20;99.90;;;23.54;96.07;101517.53;4158696;28;20043;-76
2022/08/19 11:24:30;;;;;;;5.90;1.88;;;24.30;99.90;;;23.90;92.70;101505.13;4081697;28;20039;-77
2022/08/19 11:26:32;;;;;;;4.78;1.20;;;24.60;99.90;;;24.15;89.77;101525.63;4083969;28;20039;-77
2022/08/19 11:28:33;;;;;;;7.32;1.83;;;24.80;99.90;;;24.44;89.58;101523.16;4099196;28;20050;-78
2022/08/19 11:30:34;;;;;;;3.80;1.50;;;25.00;99.90;;;24.71;88.29;101532.53;3654426;28;12635796;-78
2022/08/19 11:32:35;;;;;;;5.60;1.65;;;25.20;99.90;;;24.84;86.68;101537.78;4100760;28;20043;-77
2022/08/19 11:34:36;;;;;;;2.22;1.15;;;25.40;99.90;;;25.04;88.25;101521.25;4129857;28;20030;-77
2022/08/19 11:36:40;;;;;;;2.95;1.67;;;25.70;99.90;;;24.96;83.38;101508.09;4114140;28;20039;-77
2022/08/19 11:38:42;;;;;;;4.68;1.77;;;25.80;99.90;;;24.98;86.17;101517.63;4130689;28;20038;-77
2022/08/19 11:40:43;;;;;;;4.72;1.83;;;25.70;99.90;;;25.34;84.30;101530.09;4114624;28;20043;-77
2022/08/19 11:42:56;;;;;;;7.20;1.73;;;26.00;99.90;;;25.26;81.53;101525.88;4130453;28;20051;-78
2022/08/19 11:44:57;;;;;;;6.05;2.53;;;26.10;99.90;;;25.02;85.99;101517.97;4115871;28;20625;-78
2022/08/19 11:47:00;;;;;;;5.07;1.70;;;26.00;99.90;;;24.75;84.76;101542.66;4113266;28;20039;-78
2022/08/19 11:49:03;;;;;;;6.32;1.42;;;25.90;99.90;;;24.64;85.83;101538.00;4140335;28;20038;-77
2022/08/19 11:51:09;;;;;;;6.78;1.90;;;25.60;99.90;;;24.27;86.93;101531.06;4147235;28;20510;-78
2022/08/19 11:53:10;;;;;;;5.43;1.50;;;25.40;99.90;;;24.15;88.93;101527.47;4161968;28;20033;-78
2022/08/19 11:55:13;;;;;;;3.92;2.03;;;25.20;99.90;;;24.08;90.33;101521.31;4170978;28;20021;-78
2022/08/19 11:57:16;;;;;;;7.68;2.13;;;25.10;99.90;;;23.87;91.13;101517.19;4170920;28;20539;-78
2022/08/19 11:59:17;;;;;;;5.05;1.70;;;25.00;99.90;;;23.82;89.99;101530.53;4170765;28;20124;-78
2022/08/19 12:01:21;;;;;;;5.22;1.63;;;24.90;99.90;;;23.81;91.32;101536.97;4170685;28;20588;-78
2022/08/19 12:03:23;;;;;;;6.80;1.80;;;24.70;99.90;;;23.87;90.42;101527.97;4169512;28;20198;-78
2022/08/19 12:05:24;;;;;;;7.00;2.15;;;24.80;99.90;;;24.39;90.33;101525.72;4166939;28;20037;-78
2022/08/19 12:07:25;;;;;;;7.20;2.10;;;25.00;99.90;;;24.51;87.04;101548.19;4169500;28;20033;-78
2022/08/19 12:09:26;;;;;;;4.07;1.52;;;25.20;99.90;;;24.13;87.96;101546.56;4185967;28;20571;-78
2022/08/19 12:11:27;;;;;;;4.63;1.60;;;25.20;99.90;;;24.03;88.75;101530.09;4169484;28;20025;-77
2022/08/19 12:13:31;;;;;;;4.00;1.52;;;25.20;99.90;;;24.61;87.26;101546.56;4186062;28;20031;-77